createdAt,value
2022-08-07T00:15:14.483Z,82.7
2022-08-07T00:35:14.504Z,81.9
2022-08-07T00:55:14.438Z,82.0
2022-08-07T01:15:14.540Z,82.4
2022-08-07T01:35:14.419Z,82.0
2022-08-07T01:55:14.347Z,81.4
2022-08-07T02:15:14.389Z,81.3
2022-08-07T02:35:14.311Z,80.8
2022-08-07T02:55:14.344Z,82.0
2022-08-07T03:15:14.285Z,81.7
2022-08-07T03:35:14.314Z,82.7
2022-08-07T03:55:14.264Z,82.4
2022-08-07T04:15:14.187Z,81.9
2022-08-07T04:35:14.209Z,79.7
2022-08-07T04:55:14.138Z,77.7
2022-08-07T05:15:14.171Z,76.9
2022-08-07T05:35:14.106Z,73.3
2022-08-07T05:55:14.165Z,72.7
2022-08-07T06:15:14.116Z,71.9
2022-08-07T06:35:14.061Z,70.3
2022-08-07T06:55:14.044Z,69.6
2022-08-07T07:15:13.974Z,66.4
2022-08-07T07:35:14.036Z,65.8
2022-08-07T07:55:13.971Z,63.4
2022-08-07T08:15:13.898Z,59.2
2022-08-07T08:35:13.915Z,55.3
2022-08-07T08:55:20.698Z,54.3
2022-08-07T09:15:13.882Z,52.0
2022-08-07T09:35:22.578Z,51.7
2022-08-07T09:55:13.766Z,49.6
2022-08-07T10:15:13.760Z,51.5
2022-08-07T10:35:13.681Z,51.3
2022-08-07T10:55:13.707Z,51.8
2022-08-07T11:15:13.629Z,47.9
2022-08-07T11:35:13.673Z,48.0
2022-08-07T11:55:13.588Z,46.4
2022-08-07T12:15:13.608Z,47.9
2022-08-07T12:35:13.533Z,48.1
2022-08-07T12:55:13.574Z,46.9
2022-08-07T13:15:13.484Z,47.9
2022-08-07T13:35:13.412Z,47.5
2022-08-07T13:55:13.436Z,48.7
2022-08-07T14:15:13.381Z,47.3
2022-08-07T14:35:13.435Z,51.2
2022-08-07T14:55:13.332Z,49.9
2022-08-07T15:15:13.277Z,50.6
2022-08-07T15:35:13.323Z,52.3
2022-08-07T15:55:13.250Z,56.5
2022-08-07T16:15:13.240Z,51.1
2022-08-07T16:35:16.693Z,54.3
2022-08-07T16:55:13.209Z,54.9
2022-08-07T17:15:13.143Z,55.9
2022-08-07T17:35:13.077Z,58.8
2022-08-07T17:55:13.135Z,61.4
2022-08-07T18:15:13.044Z,60.7
2022-08-07T18:35:12.979Z,65.7
2022-08-07T18:55:13.048Z,66.9
2022-08-07T19:15:12.951Z,68.4
2022-08-07T19:35:12.981Z,69.5
2022-08-07T19:55:12.921Z,69.6
2022-08-07T20:15:12.846Z,71.4
2022-08-07T20:35:12.880Z,73.1
2022-08-07T20:55:12.810Z,74.8
2022-08-07T21:15:12.843Z,74.6
2022-08-07T21:35:12.782Z,77.0
2022-08-07T21:55:12.704Z,76.9
2022-08-07T22:15:12.740Z,77.8
2022-08-07T22:35:12.710Z,76.8
2022-08-07T22:55:12.704Z,77.5
2022-08-07T23:15:12.649Z,78.9
2022-08-07T23:35:12.671Z,78.6
2022-08-07T23:55:12.605Z,80.2
